Time;durP1;ratioP1;P1;durP2;ratioP2;P2;SDS_P1;SDS_P2;PMS_P1;PMS_P2;Temp;Humidity;BMP_temperature;BMP_pressure;BME280_temperature;BME280_humidity;BME280_pressure;Samples;Min_cycle;Max_cycle;Signal;HPM_P1;HPM_P2
2022/10/22 00:01:07;;;;;;;14.60;2.20;;;;;;;;;;5158081;27;20231;-80
2022/10/22 00:03:34;;;;;;;21.20;2.53;;;;;;;;;;5155788;27;20758;-79
2022/10/22 00:06:03;;;;;;;15.80;2.30;;;;;;;;;;5154033;27;20223;-79
2022/10/22 00:08:30;;;;;;;9.90;1.93;;;;;;;;;;5156222;27;20276;-79
2022/10/22 00:10:57;;;;;;;15.80;2.27;;;;;;;;;;5154569;27;20236;-79
2022/10/22 00:13:25;;;;;;;16.07;2.30;;;;;;;;;;5157935;27;20643;-80
2022/10/22 00:15:52;;;;;;;16.30;2.10;;;;;;;;;;5158059;27;20232;-79
2022/10/22 00:18:19;;;;;;;18.47;2.50;;;;;;;;;;5158605;27;20591;-79
2022/10/22 00:20:46;;;;;;;18.77;2.50;;;;;;;;;;5157646;27;20224;-79
2022/10/22 00:23:15;;;;;;;15.30;2.20;;;;;;;;;;5157802;27;20247;-79
2022/10/22 00:25:42;;;;;;;15.13;2.53;;;;;;;;;;5157543;27;20265;-79
2022/10/22 00:28:10;;;;;;;15.40;2.73;;;;;;;;;;5159532;27;20934;-79
2022/10/22 00:30:37;;;;;;;15.93;2.27;;;;;;;;;;5156986;27;20204;-80
2022/10/22 00:33:04;;;;;;;13.43;2.47;;;;;;;;;;5156867;27;20279;-79
2022/10/22 00:35:32;;;;;;;15.97;2.40;;;;;;;;;;5158025;27;20284;-79
2022/10/22 00:37:59;;;;;;;17.70;2.67;;;;;;;;;;5157825;27;20231;-79
2022/10/22 00:40:27;;;;;;;16.90;2.30;;;;;;;;;;5156772;27;20715;-79
2022/10/22 00:42:55;;;;;;;20.70;2.53;;;;;;;;;;5157694;27;20703;-79
2022/10/22 00:45:23;;;;;;;15.77;2.47;;;;;;;;;;5157229;27;20288;-79
2022/10/22 00:47:56;;;;;;;20.70;2.80;;;;;;;;;;5173982;27;20729;-79
2022/10/22 00:50:25;;;;;;;21.40;2.80;;;;;;;;;;5157289;27;20325;-79
2022/10/22 00:52:52;;;;;;;18.23;2.60;;;;;;;;;;5157628;27;20230;-79
2022/10/22 00:55:20;;;;;;;15.83;2.50;;;;;;;;;;5159871;27;20229;-79
2022/10/22 00:57:49;;;;;;;18.00;3.07;;;;;;;;;;5158585;27;20221;-79
2022/10/22 01:00:17;;;;;;;15.97;2.20;;;;;;;;;;5161163;27;20282;-79
2022/10/22 01:02:44;;;;;;;17.07;2.63;;;;;;;;;;5166309;27;20732;-79
2022/10/22 01:05:12;;;;;;;20.00;3.17;;;;;;;;;;5178109;27;20666;-79
2022/10/22 01:07:42;;;;;;;19.13;2.60;;;;;;;;;;5177218;27;20252;-79
2022/10/22 01:10:12;;;;;;;21.43;3.13;;;;;;;;;;5156201;27;20264;-79
2022/10/22 01:12:44;;;;;;;19.60;2.90;;;;;;;;;;5164854;27;20726;-80
2022/10/22 01:15:16;;;;;;;16.60;3.00;;;;;;;;;;5156689;27;20655;-79
2022/10/22 01:17:48;;;;;;;23.23;3.00;;;;;;;;;;5156737;27;20196;-79
2022/10/22 01:20:23;;;;;;;17.03;2.53;;;;;;;;;;5157355;27;20223;-79
2022/10/22 01:22:55;;;;;;;15.50;2.70;;;;;;;;;;5168282;27;20685;-79
2022/10/22 01:25:28;;;;;;;22.70;2.80;;;;;;;;;;5172593;27;20234;-79
2022/10/22 01:28:00;;;;;;;20.70;2.87;;;;;;;;;;5163363;27;20224;-79
2022/10/22 01:30:28;;;;;;;16.90;2.67;;;;;;;;;;5156929;27;20228;-79
2022/10/22 01:32:59;;;;;;;18.40;2.80;;;;;;;;;;5173266;27;20224;-79
2022/10/22 01:35:28;;;;;;;19.27;3.00;;;;;;;;;;5177980;27;20239;-79
2022/10/22 01:37:58;;;;;;;16.93;2.60;;;;;;;;;;5159469;27;20758;-79
2022/10/22 01:40:25;;;;;;;19.80;2.57;;;;;;;;;;5136043;27;20232;-79
2022/10/22 01:42:57;;;;;;;19.70;2.53;;;;;;;;;;5156285;27;20251;-79
2022/10/22 01:45:24;;;;;;;18.00;2.77;;;;;;;;;;5156306;27;20197;-79
2022/10/22 01:47:57;;;;;;;19.37;3.37;;;;;;;;;;5156707;27;20253;-79
2022/10/22 01:50:30;;;;;;;16.13;2.77;;;;;;;;;;5157786;27;20615;-79
2022/10/22 01:53:05;;;;;;;17.80;2.43;;;;;;;;;;5158618;27;20232;-79
2022/10/22 01:55:37;;;;;;;18.07;2.63;;;;;;;;;;5175295;27;20207;-79
2022/10/22 01:58:10;;;;;;;14.73;2.90;;;;;;;;;;5156140;27;20247;-79
2022/10/22 02:00:39;;;;;;;14.53;2.83;;;;;;;;;;5156322;27;20232;-79
2022/10/22 02:03:10;;;;;;;18.63;2.77;;;;;;;;;;5156253;27;20773;-80
2022/10/22 02:05:39;;;;;;;17.23;2.70;;;;;;;;;;5155740;27;20245;-79
2022/10/22 02:08:07;;;;;;;13.20;3.27;;;;;;;;;;5155829;27;20254;-79
2022/10/22 02:10:37;;;;;;;19.07;2.90;;;;;;;;;;5155906;27;20261;-79
2022/10/22 02:13:05;;;;;;;13.73;2.50;;;;;;;;;;5155682;27;20228;-80
2022/10/22 02:15:33;;;;;;;16.83;2.87;;;;;;;;;;5155155;27;20283;-79
2022/10/22 02:18:01;;;;;;;14.70;2.60;;;;;;;;;;5155609;27;20275;-79
2022/10/22 02:20:31;;;;;;;18.50;3.20;;;;;;;;;;5160486;27;20707;-78
2022/10/22 02:22:59;;;;;;;21.03;3.53;;;;;;;;;;5177023;27;20258;-79
2022/10/22 02:25:28;;;;;;;16.77;2.70;;;;;;;;;;5158426;27;20275;-78
2022/10/22 02:27:59;;;;;;;17.53;3.33;;;;;;;;;;5155327;27;20283;-79
2022/10/22 02:30:26;;;;;;;19.00;3.00;;;;;;;;;;5155949;27;20263;-79
2022/10/22 02:32:57;;;;;;;20.60;3.27;;;;;;;;;;5154322;27;20224;-79
2022/10/22 02:35:25;;;;;;;18.53;2.87;;;;;;;;;;5154343;27;20743;-79
2022/10/22 02:37:55;;;;;;;16.97;3.30;;;;;;;;;;5154862;27;20279;-79
2022/10/22 02:40:23;;;;;;;13.77;2.90;;;;;;;;;;5155457;27;20197;-79
2022/10/22 02:42:51;;;;;;;16.53;3.10;;;;;;;;;;5166545;27;20286;-79
2022/10/22 02:45:18;;;;;;;16.27;2.87;;;;;;;;;;5159510;27;20283;-79
2022/10/22 02:47:45;;;;;;;21.37;3.50;;;;;;;;;;5155850;27;20228;-79
2022/10/22 02:50:13;;;;;;;16.03;2.93;;;;;;;;;;5154700;27;20249;-79
2022/10/22 02:52:40;;;;;;;21.77;3.30;;;;;;;;;;5152311;27;20201;-80
2022/10/22 02:55:09;;;;;;;20.03;3.20;;;;;;;;;;5154977;27;20235;-79
2022/10/22 02:57:36;;;;;;;18.77;3.17;;;;;;;;;;5155659;27;20609;-80
2022/10/22 03:00:04;;;;;;;19.47;3.27;;;;;;;;;;5154582;27;20224;-79
2022/10/22 03:02:31;;;;;;;19.13;3.20;;;;;;;;;;5154353;27;20279;-78
2022/10/22 03:04:58;;;;;;;20.63;3.40;;;;;;;;;;5154389;27;20250;-79
2022/10/22 03:07:26;;;;;;;19.67;3.27;;;;;;;;;;5154810;27;20287;-80
2022/10/22 03:09:53;;;;;;;23.63;3.20;;;;;;;;;;5154540;27;20730;-80
2022/10/22 03:12:21;;;;;;;17.97;3.23;;;;;;;;;;5162846;27;20234;-80
2022/10/22 03:14:49;;;;;;;15.63;3.20;;;;;;;;;;5162690;27;20675;-81
2022/10/22 03:17:16;;;;;;;21.00;3.33;;;;;;;;;;5154583;27;20282;-80
2022/10/22 03:19:43;;;;;;;19.53;3.37;;;;;;;;;;5154357;27;20240;-80
2022/10/22 03:22:12;;;;;;;21.63;3.43;;;;;;;;;;5155015;27;20196;-81
2022/10/22 03:24:40;;;;;;;19.80;3.07;;;;;;;;;;5153716;27;20852;-81
2022/10/22 03:27:07;;;;;;;19.10;2.87;;;;;;;;;;5154601;27;20291;-79
2022/10/22 03:29:37;;;;;;;16.20;3.00;;;;;;;;;;5153444;27;20280;-80
2022/10/22 03:32:04;;;;;;;24.23;3.67;;;;;;;;;;5156117;27;20235;-80
2022/10/22 03:34:31;;;;;;;21.83;3.10;;;;;;;;;;5161103;27;20220;-80
2022/10/22 03:36:59;;;;;;;16.90;3.00;;;;;;;;;;5154563;27;20196;-80
2022/10/22 03:39:27;;;;;;;21.30;3.20;;;;;;;;;;5154434;27;20287;-80
2022/10/22 03:41:55;;;;;;;14.00;2.90;;;;;;;;;;5154047;27;20223;-79
2022/10/22 03:44:22;;;;;;;20.43;3.10;;;;;;;;;;5154035;27;20252;-80
2022/10/22 03:46:51;;;;;;;18.67;3.23;;;;;;;;;;5154260;27;20227;-80
2022/10/22 03:49:18;;;;;;;17.43;3.40;;;;;;;;;;5154323;27;20193;-80
2022/10/22 03:51:45;;;;;;;19.40;3.30;;;;;;;;;;5154248;27;20235;-80
2022/10/22 03:54:13;;;;;;;23.50;4.17;;;;;;;;;;5154133;27;20197;-80
2022/10/22 03:56:40;;;;;;;27.00;4.10;;;;;;;;;;5153719;27;20728;-80
2022/10/22 03:59:07;;;;;;;24.33;3.60;;;;;;;;;;5137602;27;20224;-80
2022/10/22 04:01:34;;;;;;;23.50;4.03;;;;;;;;;;5153730;27;20196;-80
2022/10/22 04:04:03;;;;;;;27.37;3.93;;;;;;;;;;5153820;27;20303;-80
2022/10/22 04:06:30;;;;;;;21.70;3.37;;;;;;;;;;5153953;27;20196;-80
2022/10/22 04:08:58;;;;;;;22.13;4.00;;;;;;;;;;5154322;27;20228;-80
2022/10/22 04:11:25;;;;;;;20.97;3.70;;;;;;;;;;5157918;27;20305;-80
2022/10/22 04:13:52;;;;;;;23.73;3.70;;;;;;;;;;5174893;27;20283;-80
2022/10/22 04:16:20;;;;;;;15.80;3.63;;;;;;;;;;5174320;27;20705;-80
2022/10/22 04:18:48;;;;;;;26.17;3.20;;;;;;;;;;5174875;27;20386;-80
2022/10/22 04:21:18;;;;;;;25.13;3.60;;;;;;;;;;5163253;27;20235;-80
2022/10/22 04:23:46;;;;;;;20.73;3.23;;;;;;;;;;5154169;27;20259;-80
2022/10/22 04:26:13;;;;;;;20.00;3.87;;;;;;;;;;5153278;27;20280;-81
2022/10/22 04:28:40;;;;;;;28.87;4.63;;;;;;;;;;5153022;27;20742;-80
2022/10/22 04:31:08;;;;;;;18.93;3.57;;;;;;;;;;5153729;27;20278;-79
2022/10/22 04:33:36;;;;;;;22.93;3.63;;;;;;;;;;5156576;27;20191;-81
2022/10/22 04:36:07;;;;;;;17.23;3.90;;;;;;;;;;5161967;27;20244;-79
2022/10/22 04:38:35;;;;;;;22.80;4.07;;;;;;;;;;5163657;27;20196;-80
2022/10/22 04:41:09;;;;;;;26.43;4.57;;;;;;;;;;5138346;27;20615;-80
2022/10/22 04:43:37;;;;;;;22.63;4.13;;;;;;;;;;5160718;27;20559;-80
2022/10/22 04:46:04;;;;;;;20.67;3.73;;;;;;;;;;5153257;27;20292;-80
2022/10/22 04:48:31;;;;;;;28.50;4.67;;;;;;;;;;5153681;27;20239;-80
2022/10/22 04:50:59;;;;;;;30.53;4.90;;;;;;;;;;5153534;27;20684;-80
2022/10/22 04:53:27;;;;;;;27.70;4.80;;;;;;;;;;5153609;27;20201;-80
2022/10/22 04:55:55;;;;;;;22.50;4.07;;;;;;;;;;5159142;27;20280;-79
2022/10/22 04:58:22;;;;;;;18.57;4.40;;;;;;;;;;5154841;27;20232;-80
2022/10/22 05:00:49;;;;;;;23.87;3.97;;;;;;;;;;5157056;27;20676;-80
2022/10/22 05:03:17;;;;;;;26.70;4.07;;;;;;;;;;5157688;27;20249;-80
2022/10/22 05:05:44;;;;;;;28.47;4.40;;;;;;;;;;5161862;27;20248;-80
2022/10/22 05:08:11;;;;;;;22.83;4.43;;;;;;;;;;5164362;27;20287;-80
2022/10/22 05:10:38;;;;;;;20.33;3.53;;;;;;;;;;5160193;27;20327;-80
2022/10/22 05:13:07;;;;;;;23.03;3.83;;;;;;;;;;5165538;27;20283;-80
2022/10/22 05:15:34;;;;;;;21.73;4.10;;;;;;;;;;5178029;27;20251;-80
2022/10/22 05:18:01;;;;;;;25.23;4.00;;;;;;;;;;5174864;27;20242;-80
2022/10/22 05:20:28;;;;;;;17.83;3.30;;;;;;;;;;5156783;27;20722;-81
2022/10/22 05:22:55;;;;;;;19.30;3.63;;;;;;;;;;5159038;27;20223;-80
2022/10/22 05:25:23;;;;;;;18.77;3.37;;;;;;;;;;5166087;27;20299;-80
2022/10/22 05:27:50;;;;;;;16.17;3.67;;;;;;;;;;5156877;27;20283;-80
2022/10/22 05:30:18;;;;;;;19.03;3.50;;;;;;;;;;5156423;27;20741;-80
2022/10/22 05:32:46;;;;;;;17.43;3.57;;;;;;;;;;5156798;27;20702;-80
2022/10/22 05:35:13;;;;;;;19.50;4.03;;;;;;;;;;5157354;27;20224;-80
2022/10/22 05:37:40;;;;;;;19.00;3.83;;;;;;;;;;5157029;27;20236;-80
2022/10/22 05:40:08;;;;;;;16.27;3.30;;;;;;;;;;5156798;27;20612;-80
2022/10/22 05:42:35;;;;;;;20.27;3.57;;;;;;;;;;5171784;27;20246;-80
2022/10/22 05:45:02;;;;;;;30.20;4.70;;;;;;;;;;5177483;27;20262;-80
2022/10/22 05:47:31;;;;;;;27.07;5.90;;;;;;;;;;5168602;27;20280;-80
2022/10/22 05:49:58;;;;;;;23.20;5.50;;;;;;;;;;5156405;27;20235;-80
2022/10/22 05:52:25;;;;;;;30.13;7.67;;;;;;;;;;5156663;27;20185;-80
2022/10/22 05:54:52;;;;;;;25.10;7.20;;;;;;;;;;5156550;27;20633;-80
2022/10/22 05:57:20;;;;;;;22.73;6.97;;;;;;;;;;5155438;27;20279;-80
2022/10/22 05:59:47;;;;;;;24.10;6.93;;;;;;;;;;5155866;27;20291;-80
2022/10/22 06:02:14;;;;;;;20.87;6.00;;;;;;;;;;5160584;27;20228;-80
2022/10/22 06:04:43;;;;;;;17.00;5.83;;;;;;;;;;5156222;27;20315;-80
2022/10/22 06:07:12;;;;;;;21.00;4.80;;;;;;;;;;5156518;27;20283;-80
2022/10/22 06:09:39;;;;;;;22.43;4.30;;;;;;;;;;5155778;27;20270;-80
2022/10/22 06:12:09;;;;;;;22.67;4.10;;;;;;;;;;5156156;27;20227;-80
2022/10/22 06:14:36;;;;;;;20.83;4.63;;;;;;;;;;5156105;27;20188;-80
2022/10/22 06:17:04;;;;;;;28.33;4.80;;;;;;;;;;5155729;27;20224;-80
2022/10/22 06:19:31;;;;;;;25.40;5.17;;;;;;;;;;5156312;27;20238;-80
2022/10/22 06:21:59;;;;;;;24.27;5.20;;;;;;;;;;5155267;27;20232;-80
2022/10/22 06:24:27;;;;;;;25.67;5.03;;;;;;;;;;5149767;27;20248;-80
2022/10/22 06:26:54;;;;;;;29.60;5.87;;;;;;;;;;5160616;27;20737;-80
2022/10/22 06:29:21;;;;;;;27.63;5.57;;;;;;;;;;5155715;27;20252;-80
2022/10/22 06:31:48;;;;;;;29.63;6.07;;;;;;;;;;5155464;27;20196;-81
2022/10/22 06:34:17;;;;;;;28.30;6.23;;;;;;;;;;5154798;27;20241;-80
2022/10/22 06:36:44;;;;;;;26.30;5.70;;;;;;;;;;5155498;27;20196;-81
2022/10/22 06:39:13;;;;;;;26.83;6.00;;;;;;;;;;5155635;27;20283;-80
2022/10/22 06:41:41;;;;;;;22.93;6.10;;;;;;;;;;5154525;27;20228;-80
2022/10/22 06:44:08;;;;;;;26.77;5.97;;;;;;;;;;5172585;27;20238;-80
2022/10/22 06:46:35;;;;;;;25.17;5.93;;;;;;;;;;5173225;27;20192;-80
2022/10/22 06:49:04;;;;;;;29.63;6.77;;;;;;;;;;5155473;27;20283;-80
2022/10/22 06:51:32;;;;;;;24.80;6.90;;;;;;;;;;5155460;27;20362;-80
2022/10/22 06:53:59;;;;;;;32.23;7.27;;;;;;;;;;5163394;27;20283;-80
2022/10/22 06:56:29;;;;;;;30.03;7.47;;;;;;;;;;5175611;27;20283;-80
2022/10/22 06:58:56;;;;;;;25.93;6.97;;;;;;;;;;5158938;27;20204;-79
2022/10/22 07:01:24;;;;;;;29.40;6.43;;;;;;;;;;5154860;27;20227;-80
2022/10/22 07:03:52;;;;;;;26.77;6.20;;;;;;;;;;5153928;27;20743;-78
2022/10/22 07:06:19;;;;;;;29.90;6.60;;;;;;;;;;5163375;27;20303;-79
2022/10/22 07:08:47;;;;;;;24.83;5.73;;;;;;;;;;5170680;27;20228;-80
2022/10/22 07:11:15;;;;;;;29.20;6.53;;;;;;;;;;5153840;27;20307;-79
2022/10/22 07:13:45;;;;;;;25.10;6.10;;;;;;;;;;5152818;27;20694;-79
2022/10/22 07:16:13;;;;;;;32.63;6.50;;;;;;;;;;5152519;27;20192;-79
2022/10/22 07:18:40;;;;;;;22.93;6.03;;;;;;;;;;5145696;27;20228;-79
2022/10/22 07:21:08;;;;;;;22.10;6.23;;;;;;;;;;5152064;27;20201;-80
2022/10/22 07:23:35;;;;;;;20.87;6.97;;;;;;;;;;5153998;27;20287;-79
2022/10/22 07:26:03;;;;;;;20.67;5.90;;;;;;;;;;5153733;27;20259;-79
2022/10/22 07:28:31;;;;;;;19.73;4.87;;;;;;;;;;5153444;27;20779;-79
2022/10/22 07:31:00;;;;;;;20.73;5.40;;;;;;;;;;5152997;27;20196;-79
2022/10/22 07:33:27;;;;;;;20.90;4.90;;;;;;;;;;5153445;27;20292;-79
2022/10/22 07:35:58;;;;;;;26.53;5.23;;;;;;;;;;5154129;27;20275;-79
2022/10/22 07:38:26;;;;;;;27.67;6.60;;;;;;;;;;5152945;27;20715;-80
2022/10/22 07:40:53;;;;;;;27.80;6.20;;;;;;;;;;5154212;27;20232;-79
2022/10/22 07:43:20;;;;;;;29.07;6.83;;;;;;;;;;5159520;27;20630;-79
2022/10/22 07:45:47;;;;;;;26.67;5.87;;;;;;;;;;5154069;27;20312;-80
2022/10/22 07:48:17;;;;;;;24.90;5.80;;;;;;;;;;5150473;27;20228;-80
2022/10/22 07:50:44;;;;;;;30.77;6.70;;;;;;;;;;5154202;27;20755;-80
2022/10/22 07:53:11;;;;;;;21.43;6.07;;;;;;;;;;5153705;27;20250;-79
2022/10/22 07:55:38;;;;;;;27.60;6.30;;;;;;;;;;5170989;27;20644;-79
2022/10/22 07:58:05;;;;;;;32.07;6.30;;;;;;;;;;5154211;27;20686;-80
2022/10/22 08:00:32;;;;;;;29.10;6.03;;;;;;;;;;5154247;27;20636;-79
2022/10/22 08:03:00;;;;;;;26.80;6.60;;;;;;;;;;5153655;27;20227;-79
2022/10/22 08:05:28;;;;;;;34.80;7.53;;;;;;;;;;5153824;27;20307;-79
2022/10/22 08:07:55;;;;;;;26.53;6.47;;;;;;;;;;5158266;27;20239;-80
2022/10/22 08:10:23;;;;;;;20.30;6.20;;;;;;;;;;5157666;27;20315;-80
2022/10/22 08:12:50;;;;;;;25.70;5.73;;;;;;;;;;5158113;27;20283;-80
2022/10/22 08:15:17;;;;;;;26.23;6.53;;;;;;;;;;5150801;27;20227;-80
2022/10/22 08:17:44;;;;;;;32.70;7.30;;;;;;;;;;5153678;27;20228;-79
2022/10/22 08:20:12;;;;;;;25.67;6.43;;;;;;;;;;5157617;27;20237;-81
2022/10/22 08:22:40;;;;;;;20.60;6.13;;;;;;;;;;5163672;27;20282;-82
2022/10/22 08:25:08;;;;;;;30.23;6.73;;;;;;;;;;5152960;27;20307;-82
2022/10/22 08:27:35;;;;;;;23.57;5.70;;;;;;;;;;5153818;27;20239;-79
2022/10/22 08:30:02;;;;;;;21.97;6.50;;;;;;;;;;5148733;27;20212;-79
2022/10/22 08:32:29;;;;;;;27.23;5.97;;;;;;;;;;5152549;27;20649;-79
2022/10/22 08:34:56;;;;;;;18.27;5.90;;;;;;;;;;5166340;27;20270;-79
2022/10/22 08:37:24;;;;;;;22.17;6.10;;;;;;;;;;5157761;27;20251;-79
2022/10/22 08:39:53;;;;;;;24.13;6.67;;;;;;;;;;5155859;27;20200;-79
2022/10/22 08:42:30;;;;;;;23.37;6.70;;;;;;;;;;5156045;27;20224;-79
2022/10/22 08:45:04;;;;;;;19.77;5.83;;;;;;;;;;5157078;27;20208;-79
2022/10/22 08:47:40;;;;;;;17.30;5.67;;;;;;;;;;5156291;27;20728;-79
2022/10/22 08:50:10;;;;;;;22.93;5.70;;;;;;;;;;5157162;27;20256;-80
2022/10/22 08:52:37;;;;;;;18.80;5.87;;;;;;;;;;5154190;27;20196;-79
2022/10/22 08:55:12;;;;;;;23.25;6.07;;;;;;;;;;5157063;27;20279;-80
2022/10/22 08:57:44;;;;;;;21.42;5.68;;;;;;;;;;5157307;27;20242;-79
2022/10/22 09:00:12;;;;;;;22.17;5.93;;;;;;;;;;5157478;27;20193;-79
2022/10/22 09:02:45;;;;;;;18.10;6.13;;;;;;;;;;5154960;27;20228;-80
2022/10/22 09:05:18;;;;;;;17.95;4.90;;;;;;;;;;5156441;27;20217;-80
2022/10/22 09:07:48;;;;;;;18.25;4.80;;;;;;;;;;5151932;27;20207;-79
2022/10/22 09:10:17;;;;;;;22.30;5.03;;;;;;;;;;5156238;27;20578;-79
2022/10/22 09:12:45;;;;;;;21.20;5.35;;;;;;;;;;5158445;27;20279;-80
2022/10/22 09:15:16;;;;;;;19.58;4.68;;;;;;;;;;5156735;27;20272;-80
2022/10/22 09:17:50;;;;;;;17.35;4.78;;;;;;;;;;5155819;27;20280;-79
2022/10/22 09:20:25;;;;;;;15.98;4.22;;;;;;;;;;5151974;27;20242;-79
2022/10/22 09:22:56;;;;;;;20.65;5.25;;;;;;;;;;5155134;27;20282;-79
2022/10/22 09:25:26;;;;;;;18.33;4.53;;;;;;;;;;5152715;27;20307;-79
2022/10/22 09:27:57;;;;;;;18.23;4.57;;;;;;;;;;5155257;27;20192;-78
2022/10/22 09:30:26;;;;;;;14.15;4.38;;;;;;;;;;5155002;27;20654;-79
2022/10/22 09:32:55;;;;;;;16.15;4.30;;;;;;;;;;5141657;27;20626;-79
2022/10/22 09:35:24;;;;;;;16.73;4.50;;;;;;;;;;5155530;27;20279;-79
2022/10/22 09:37:52;;;;;;;20.17;4.47;;;;;;;;;;5140203;27;20196;-79
2022/10/22 09:40:19;;;;;;;16.35;4.15;;;;;;;;;;5145878;27;20287;-78
2022/10/22 09:42:48;;;;;;;16.67;4.20;;;;;;;;;;5152293;27;20276;-78
2022/10/22 09:45:20;;;;;;;14.50;4.35;;;;;;;;;;5150192;27;21172;-78
2022/10/22 09:47:47;;;;;;;11.57;3.70;;;;;;;;;;5149664;27;20809;-78
2022/10/22 09:50:20;;;;;;;20.42;4.25;;;;;;;;;;5149316;27;20578;-79
2022/10/22 09:52:55;;;;;;;16.50;3.53;;;;;;;;;;5151313;27;20211;-78
2022/10/22 09:55:25;;;;;;;12.18;3.70;;;;;;;;;;5151676;27;20184;-78
2022/10/22 09:57:55;;;;;;;14.73;3.72;;;;;;;;;;5153514;27;20200;-78
2022/10/22 10:00:23;;;;;;;14.77;2.95;;;;;;;;;;5151020;27;20299;-78
2022/10/22 10:02:54;;;;;;;15.45;3.67;;;;;;;;;;5148782;27;20196;-79
2022/10/22 10:05:26;;;;;;;15.43;3.30;;;;;;;;;;5149788;27;20212;-78
2022/10/22 10:07:53;;;;;;;17.95;3.20;;;;;;;;;;5149775;27;20230;-78
2022/10/22 10:10:25;;;;;;;14.55;3.40;;;;;;;;;;5149477;27;20310;-78
2022/10/22 10:12:57;;;;;;;14.00;3.72;;;;;;;;;;5151207;27;20647;-78
2022/10/22 10:15:28;;;;;;;14.32;3.22;;;;;;;;;;5146601;27;20549;-78
2022/10/22 10:18:01;;;;;;;15.18;3.30;;;;;;;;;;5148689;27;20201;-77
2022/10/22 10:20:34;;;;;;;12.68;3.20;;;;;;;;;;5151908;27;20216;-77
2022/10/22 10:23:04;;;;;;;11.25;2.88;;;;;;;;;;5150169;27;20231;-78
2022/10/22 10:25:44;;;;;;;14.80;3.10;;;;;;;;;;5148320;27;20208;-79
2022/10/22 10:28:25;;;;;;;12.20;2.83;;;;;;;;;;5149333;27;21022;-78
2022/10/22 10:30:56;;;;;;;9.90;2.58;;;;;;;;;;5151669;27;20630;-77
2022/10/22 10:33:28;;;;;;;9.65;2.63;;;;;;;;;;5154477;27;20283;-78
2022/10/22 10:35:59;;;;;;;14.88;2.17;;;;;;;;;;5154556;27;20572;-81
2022/10/22 10:38:47;;;;;;;12.88;3.30;;;;;;;;;;5154936;27;20234;-79
2022/10/22 10:41:18;;;;;;;9.50;2.70;;;;;;;;;;5142722;27;20235;-80
2022/10/22 10:43:51;;;;;;;11.27;2.42;;;;;;;;;;5147860;27;20237;-76
2022/10/22 10:46:22;;;;;;;10.35;2.90;;;;;;;;;;5148420;27;20717;-76
2022/10/22 10:48:50;;;;;;;10.25;2.90;;;;;;;;;;5153429;27;20216;-76
2022/10/22 10:51:32;;;;;;;12.23;2.38;;;;;;;;;;5148510;27;20196;-76
2022/10/22 10:54:10;;;;;;;12.88;2.85;;;;;;;;;;5153766;27;20208;-75
2022/10/22 10:56:40;;;;;;;11.93;2.60;;;;;;;;;;5153935;27;20188;-76
2022/10/22 10:59:17;;;;;;;10.13;2.33;;;;;;;;;;5149434;27;20681;-78
2022/10/22 11:01:51;;;;;;;15.43;2.75;;;;;;;;;;5154126;27;20223;-79
2022/10/22 11:04:42;;;;;;;11.15;2.45;;;;;;;;;;5153442;27;20282;-79
2022/10/22 11:07:12;;;;;;;8.88;2.25;;;;;;;;;;5120791;27;20316;-78
2022/10/22 11:09:41;;;;;;;10.07;2.10;;;;;;;;;;5149524;27;20220;-78
2022/10/22 11:12:13;;;;;;;11.25;2.72;;;;;;;;;;5149908;27;20224;-78
2022/10/22 11:14:45;;;;;;;9.48;2.30;;;;;;;;;;5148873;27;20704;-79
2022/10/22 11:17:15;;;;;;;9.75;1.80;;;;;;;;;;5149338;27;20304;-79
2022/10/22 11:19:44;;;;;;;7.40;2.05;;;;;;;;;;5147924;27;20230;-79
2022/10/22 11:22:15;;;;;;;12.02;2.42;;;;;;;;;;5150189;27;20204;-83
2022/10/22 11:24:47;;;;;;;11.05;2.30;;;;;;;;;;5149281;27;20291;-81
2022/10/22 11:27:22;;;;;;;12.90;2.83;;;;;;;;;;5150471;27;20227;-82
2022/10/22 11:29:53;;;;;;;9.30;2.40;;;;;;;;;;5148725;27;20307;-82
2022/10/22 11:32:22;;;;;;;12.52;2.60;;;;;;;;;;5150914;27;20235;-82
2022/10/22 11:34:52;;;;;;;8.82;2.60;;;;;;;;;;5149046;27;20196;-80
2022/10/22 11:37:20;;;;;;;11.75;2.50;;;;;;;;;;5146903;27;20188;-80
2022/10/22 11:39:49;;;;;;;8.57;2.30;;;;;;;;;;5147907;27;20228;-81
2022/10/22 11:42:19;;;;;;;9.75;2.30;;;;;;;;;;5149583;27;20192;-81
2022/10/22 11:44:47;;;;;;;9.15;2.33;;;;;;;;;;5148602;27;20232;-81
2022/10/22 11:47:18;;;;;;;10.32;2.40;;;;;;;;;;5149981;27;20224;-81
2022/10/22 11:49:55;;;;;;;8.25;2.42;;;;;;;;;;5147893;27;20261;-81
2022/10/22 11:52:24;;;;;;;6.53;1.83;;;;;;;;;;5152315;27;20191;-82
2022/10/22 11:54:54;;;;;;;8.70;2.45;;;;;;;;;;5147448;27;20212;-81
2022/10/22 11:57:25;;;;;;;8.88;1.88;;;;;;;;;;5150299;27;20257;-81
2022/10/22 11:59:54;;;;;;;7.35;1.70;;;;;;;;;;5147449;27;20279;-81
2022/10/22 12:02:30;;;;;;;5.90;1.55;;;;;;;;;;5150269;27;20204;-81
2022/10/22 12:05:12;;;;;;;6.82;1.70;;;;;;;;;;5146869;27;20219;-80
2022/10/22 12:07:52;;;;;;;9.50;1.70;;;;;;;;;;5149078;27;20302;-81
2022/10/22 12:10:20;;;;;;;8.57;1.67;;;;;;;;;;5142163;27;20226;-82
2022/10/22 12:12:53;;;;;;;6.72;1.83;;;;;;;;;;5149086;27;20234;-81
2022/10/22 12:15:23;;;;;;;8.63;1.83;;;;;;;;;;5147250;27;20236;-82
2022/10/22 12:17:50;;;;;;;8.13;1.50;;;;;;;;;;5150491;27;20571;-81
2022/10/22 12:20:18;;;;;;;12.98;2.30;;;;;;;;;;5149908;27;20642;-82
2022/10/22 12:22:45;;;;;;;6.30;1.77;;;;;;;;;;5149061;27;20276;-81
2022/10/22 12:25:20;;;;;;;9.32;2.15;;;;;;;;;;5149619;27;20287;-82
2022/10/22 12:27:52;;;;;;;11.25;1.90;;;;;;;;;;5151071;27;20303;-82
2022/10/22 12:30:21;;;;;;;7.53;1.77;;;;;;;;;;5163729;27;20220;-82
2022/10/22 12:32:48;;;;;;;5.50;1.33;;;;;;;;;;5153311;27;20207;-81
2022/10/22 12:35:17;;;;;;;7.78;1.27;;;;;;;;;;5154011;27;20705;-82
2022/10/22 12:37:44;;;;;;;6.75;1.30;;;;;;;;;;5153065;27;20274;-82
2022/10/22 12:40:18;;;;;;;5.35;1.38;;;;;;;;;;5153464;27;20232;-81
2022/10/22 12:42:49;;;;;;;7.13;1.30;;;;;;;;;;5156528;27;20277;-81
2022/10/22 12:45:16;;;;;;;6.88;1.35;;;;;;;;;;5174319;27;20283;-82
2022/10/22 12:47:46;;;;;;;10.32;2.00;;;;;;;;;;5174373;27;20307;-81
2022/10/22 12:50:18;;;;;;;3.97;1.35;;;;;;;;;;5174575;27;20287;-81
2022/10/22 12:52:45;;;;;;;6.15;1.77;;;;;;;;;;5174479;27;20188;-82
2022/10/22 12:55:15;;;;;;;6.35;1.60;;;;;;;;;;5175014;27;20224;-82
2022/10/22 12:57:46;;;;;;;8.63;1.38;;;;;;;;;;5174700;27;20227;-82
2022/10/22 13:00:24;;;;;;;5.85;1.70;;;;;;;;;;5153854;27;20714;-81
2022/10/22 13:02:51;;;;;;;6.15;1.38;;;;;;;;;;5153533;27;20204;-82
2022/10/22 13:05:25;;;;;;;8.25;1.65;;;;;;;;;;5153012;27;20197;-81
2022/10/22 13:07:53;;;;;;;6.35;1.60;;;;;;;;;;5153502;27;20250;-81
2022/10/22 13:10:24;;;;;;;6.75;1.92;;;;;;;;;;5153282;27;20290;-82
2022/10/22 13:12:55;;;;;;;4.30;1.52;;;;;;;;;;5153186;27;20241;-82
2022/10/22 13:15:33;;;;;;;7.50;1.88;;;;;;;;;;5152989;27;20243;-81
2022/10/22 13:18:04;;;;;;;6.53;1.73;;;;;;;;;;5154805;27;20199;-81
2022/10/22 13:20:31;;;;;;;9.52;1.50;;;;;;;;;;5177824;27;20260;-82
2022/10/22 13:22:59;;;;;;;4.22;1.27;;;;;;;;;;5177823;27;20231;-81
2022/10/22 13:25:28;;;;;;;5.13;1.50;;;;;;;;;;5178183;27;20589;-81
2022/10/22 13:27:58;;;;;;;4.50;1.58;;;;;;;;;;5177780;27;20251;-81
2022/10/22 13:30:26;;;;;;;7.93;1.60;;;;;;;;;;5157645;27;20722;-81
2022/10/22 13:32:55;;;;;;;6.38;1.60;;;;;;;;;;5156810;27;20197;-81
2022/10/22 13:35:24;;;;;;;7.57;1.80;;;;;;;;;;5156894;27;20284;-81
2022/10/22 13:37:52;;;;;;;5.90;1.73;;;;;;;;;;5157157;27;20227;-81
2022/10/22 13:40:19;;;;;;;4.97;1.67;;;;;;;;;;5157183;27;20228;-81
2022/10/22 13:42:46;;;;;;;9.00;1.98;;;;;;;;;;5157197;27;20275;-81
2022/10/22 13:45:15;;;;;;;4.72;1.45;;;;;;;;;;5156901;27;20224;-82
2022/10/22 13:47:44;;;;;;;6.38;1.65;;;;;;;;;;5156848;27;20258;-81
2022/10/22 13:50:13;;;;;;;5.20;1.50;;;;;;;;;;5156640;27;20228;-82
2022/10/22 13:52:41;;;;;;;4.75;1.25;;;;;;;;;;5156481;27;20192;-81
2022/10/22 13:55:16;;;;;;;4.97;1.33;;;;;;;;;;5156497;27;20235;-82
2022/10/22 13:57:43;;;;;;;6.65;1.70;;;;;;;;;;5156459;27;20250;-82
2022/10/22 14:00:12;;;;;;;4.40;1.40;;;;;;;;;;5156707;27;20224;-81
2022/10/22 14:02:41;;;;;;;6.60;1.90;;;;;;;;;;5156175;27;20664;-81
2022/10/22 14:05:10;;;;;;;6.28;1.65;;;;;;;;;;5156718;27;20242;-82
2022/10/22 14:07:37;;;;;;;6.22;1.60;;;;;;;;;;5155963;27;20216;-82
2022/10/22 14:10:04;;;;;;;7.38;1.70;;;;;;;;;;5156002;27;20255;-82
2022/10/22 14:12:45;;;;;;;6.45;1.90;;;;;;;;;;5146465;27;20588;-82
2022/10/22 14:15:13;;;;;;;5.13;1.52;;;;;;;;;;5131188;28;20251;-81
2022/10/22 14:17:41;;;;;;;6.45;1.90;;;;;;;;;;5130072;28;20219;-81
2022/10/22 14:20:11;;;;;;;6.80;1.75;;;;;;;;;;5129572;28;20733;-82
2022/10/22 14:22:38;;;;;;;4.95;1.60;;;;;;;;;;5129684;28;20201;-81
2022/10/22 14:25:06;;;;;;;5.85;1.55;;;;;;;;;;5130176;28;20232;-81
2022/10/22 14:27:33;;;;;;;9.82;1.70;;;;;;;;;;5129149;28;20672;-81
2022/10/22 14:30:01;;;;;;;7.15;1.75;;;;;;;;;;5130522;28;20246;-79
2022/10/22 14:32:29;;;;;;;4.15;1.55;;;;;;;;;;5124586;28;20308;-80
2022/10/22 14:34:58;;;;;;;6.47;2.13;;;;;;;;;;5118994;28;20201;-81
2022/10/22 14:37:25;;;;;;;5.22;2.08;;;;;;;;;;5126343;28;20196;-79
2022/10/22 14:39:58;;;;;;;7.30;2.10;;;;;;;;;;5128934;28;20224;-80
2022/10/22 14:42:26;;;;;;;5.53;1.70;;;;;;;;;;5129790;28;20194;-80
2022/10/22 14:44:53;;;;;;;4.93;1.45;;;;;;;;;;5121110;28;20225;-80